createdAt,value
2022-10-22T00:01:55.132Z,100248.22
2022-10-22T00:04:23.967Z,100254.16
2022-10-22T00:06:52.502Z,100247.88
2022-10-22T00:09:21.217Z,100233.94
2022-10-22T00:11:49.858Z,100240.78
2022-10-22T00:14:19.111Z,100228.63
2022-10-22T00:16:47.627Z,100240.69
2022-10-22T00:19:17.712Z,100238.72
2022-10-22T00:21:46.322Z,100235.34
2022-10-22T00:24:15.670Z,100241.44
2022-10-22T00:26:44.219Z,100232.66
2022-10-22T00:29:12.998Z,100230.78
2022-10-22T00:31:41.494Z,100221.72
2022-10-22T00:34:10.191Z,100219.94
2022-10-22T00:36:40.150Z,100204.13
2022-10-22T00:39:08.939Z,100196.34
2022-10-22T00:41:37.472Z,100197.94
2022-10-22T00:44:07.927Z,100197.09
2022-10-22T00:46:36.428Z,100193.56
2022-10-22T00:49:05.946Z,100195.88
2022-10-22T00:51:37.179Z,100198.31
2022-10-22T00:54:10.046Z,100197.41
2022-10-22T00:56:39.381Z,100199.06
2022-10-22T01:01:42.099Z,100195.50
2022-10-22T01:04:10.881Z,100181.50
2022-10-22T01:06:39.723Z,100184.75
2022-10-22T01:09:22.339Z,100182.03
2022-10-22T01:12:04.219Z,100190.66
2022-10-22T01:14:48.419Z,100182.69
2022-10-22T01:17:30.205Z,100174.94
2022-10-22T01:20:14.470Z,100176.13
2022-10-22T01:22:55.972Z,100171.91
2022-10-22T01:25:35.290Z,100163.13
2022-10-22T01:28:20.014Z,100170.41
2022-10-22T01:30:57.583Z,100172.09
2022-10-22T01:33:29.391Z,100158.25
2022-10-22T01:36:00.992Z,100156.38
2022-10-22T01:38:30.825Z,100159.16
2022-10-22T01:41:01.305Z,100159.91
2022-10-22T01:43:29.851Z,100161.59
2022-10-22T01:46:04.959Z,100172.66
2022-10-22T01:48:53.233Z,100177.06
2022-10-22T01:51:48.443Z,100170.22
2022-10-22T01:54:32.352Z,100163.19
2022-10-22T01:57:15.221Z,100170.22
2022-10-22T01:59:58.631Z,100160.78
2022-10-22T02:02:38.655Z,100152.69
2022-10-22T02:05:16.379Z,100151.22
2022-10-22T02:07:50.669Z,100143.06
2022-10-22T02:10:21.173Z,100144.09
2022-10-22T02:12:55.182Z,100147.34
2022-10-22T02:15:28.429Z,100148.50
2022-10-22T02:18:01.683Z,100151.75
2022-10-22T02:20:34.126Z,100147.66
2022-10-22T02:23:04.613Z,100148.50
2022-10-22T02:25:37.793Z,100140.63
2022-10-22T02:28:16.561Z,100140.81
2022-10-22T02:30:53.987Z,100139.91
2022-10-22T02:33:29.768Z,100143.44
2022-10-22T02:36:01.368Z,100148.22
2022-10-22T02:38:32.215Z,100156.63
2022-10-22T02:41:00.970Z,100155.03
2022-10-22T02:43:30.805Z,100158.28
2022-10-22T02:45:59.459Z,100153.06
2022-10-22T02:48:29.809Z,100155.56
2022-10-22T02:50:58.297Z,100151.38
2022-10-22T02:53:26.994Z,100152.41
2022-10-22T02:55:55.535Z,100153.25
2022-10-22T02:58:24.225Z,100156.53
2022-10-22T03:00:52.846Z,100149.59
2022-10-22T03:03:21.609Z,100156.72
2022-10-22T03:05:52.361Z,100147.16
2022-10-22T03:08:21.071Z,100150.53
2022-10-22T03:10:49.628Z,100149.69
2022-10-22T03:13:18.314Z,100141.81
2022-10-22T03:15:49.720Z,100141.00
2022-10-22T03:18:19.341Z,100135.75
2022-10-22T03:20:47.930Z,100133.78
2022-10-22T03:23:21.255Z,100139.09
2022-10-22T03:25:51.393Z,100129.34
2022-10-22T03:28:20.301Z,100129.53
2022-10-22T03:30:48.780Z,100137.13
2022-10-22T03:33:17.480Z,100144.06
2022-10-22T03:35:48.909Z,100144.16
2022-10-22T03:38:19.041Z,100151.94
2022-10-22T03:40:48.386Z,100157.19
2022-10-22T03:43:17.623Z,100159.72
2022-10-22T03:45:46.174Z,100149.41
2022-10-22T03:48:15.415Z,100159.72
2022-10-22T03:50:44.007Z,100159.50
2022-10-22T03:53:12.917Z,100148.16
2022-10-22T03:55:43.690Z,100142.94
2022-10-22T03:58:12.464Z,100143.56
2022-10-22T04:00:41.619Z,100138.50
2022-10-22T04:03:10.427Z,100149.00
2022-10-22T04:05:38.976Z,100151.34
2022-10-22T04:08:07.785Z,100157.22
2022-10-22T04:10:36.301Z,100146.63
2022-10-22T04:13:06.341Z,100139.59
2022-10-22T04:15:34.936Z,100148.25
2022-10-22T04:18:03.750Z,100143.44
2022-10-22T04:20:32.269Z,100135.66
2022-10-22T04:23:00.968Z,100125.28
2022-10-22T04:25:29.549Z,100113.00
2022-10-22T04:27:58.233Z,100107.84
2022-10-22T04:30:28.852Z,100108.56
2022-10-22T04:32:57.530Z,100113.00
2022-10-22T04:38:00.187Z,100094.72
2022-10-22T04:40:28.707Z,100089.28
2022-10-22T04:42:58.288Z,100085.72
2022-10-22T04:45:28.292Z,100100.59
2022-10-22T04:47:57.559Z,100100.22
2022-10-22T04:50:26.112Z,100098.72
2022-10-22T04:52:54.811Z,100100.50
2022-10-22T04:55:23.487Z,100097.78
2022-10-22T04:57:52.239Z,100095.16
2022-10-22T05:00:21.065Z,100097.31
2022-10-22T05:02:52.568Z,100100.03
2022-10-22T05:05:21.064Z,100088.91
2022-10-22T05:07:51.977Z,100101.88
2022-10-22T05:10:20.529Z,100100.22
2022-10-22T05:12:49.231Z,100108.47
2022-10-22T05:15:17.947Z,100110.91
2022-10-22T05:17:46.638Z,100123.00
2022-10-22T05:20:16.925Z,100118.59
2022-10-22T05:22:45.632Z,100119.41
2022-10-22T05:25:14.158Z,100125.50
2022-10-22T05:27:43.166Z,100126.44
2022-10-22T05:30:13.138Z,100126.34
2022-10-22T05:32:41.899Z,100112.38
2022-10-22T05:35:10.906Z,100118.38
2022-10-22T05:37:41.238Z,100113.88
2022-10-22T05:40:19.496Z,100104.31
2022-10-22T05:42:55.523Z,100108.44
2022-10-22T05:45:24.024Z,100102.22
2022-10-22T05:47:52.794Z,100108.22
2022-10-22T05:50:21.341Z,100111.78
2022-10-22T05:52:51.368Z,100109.91
2022-10-22T05:55:19.906Z,100098.38
2022-10-22T05:57:50.190Z,100096.38
2022-10-22T06:00:19.172Z,100095.22
2022-10-22T06:02:51.363Z,100107.19
2022-10-22T06:05:19.932Z,100122.00
2022-10-22T06:07:49.003Z,100120.03
2022-10-22T06:10:22.214Z,100111.00
2022-10-22T06:12:51.572Z,100106.69
2022-10-22T06:15:21.206Z,100123.06
2022-10-22T06:17:50.034Z,100125.91
2022-10-22T06:20:18.720Z,100128.41
2022-10-22T06:22:48.383Z,100128.13
2022-10-22T06:25:18.647Z,100130.66
2022-10-22T06:27:52.060Z,100132.13
2022-10-22T06:30:20.684Z,100123.50
2022-10-22T06:32:49.434Z,100121.94
2022-10-22T06:35:18.293Z,100141.59
2022-10-22T06:37:47.902Z,100145.78
2022-10-22T06:40:18.789Z,100126.56
2022-10-22T06:42:47.532Z,100136.13
2022-10-22T06:45:16.718Z,100126.38
2022-10-22T06:47:46.749Z,100131.50
2022-10-22T06:50:15.877Z,100124.88
2022-10-22T06:52:44.731Z,100138.13
2022-10-22T06:55:13.300Z,100153.47
2022-10-22T06:57:43.541Z,100141.50
2022-10-22T07:00:14.174Z,100139.53
2022-10-22T07:02:43.471Z,100143.53
2022-10-22T07:05:12.237Z,100168.97
2022-10-22T07:07:41.008Z,100177.88
2022-10-22T07:10:10.731Z,100190.53
2022-10-22T07:12:39.980Z,100192.44
2022-10-22T07:15:11.314Z,100190.13
2022-10-22T07:20:13.722Z,100182.13
2022-10-22T07:22:42.934Z,100183.94
2022-10-22T07:25:12.280Z,100179.50
2022-10-22T07:27:41.251Z,100179.31
2022-10-22T07:30:12.702Z,100178.75
2022-10-22T07:32:41.637Z,100168.63
2022-10-22T07:35:10.690Z,100163.81
2022-10-22T07:37:39.653Z,100163.16
2022-10-22T07:40:10.605Z,100158.03
2022-10-22T07:42:39.518Z,100169.69
2022-10-22T07:45:11.385Z,100160.03
2022-10-22T07:47:40.491Z,100166.44
2022-10-22T07:50:09.875Z,100174.53
2022-10-22T07:52:38.927Z,100179.78
2022-10-22T07:55:09.013Z,100174.53
2022-10-22T07:57:38.033Z,100180.63
2022-10-22T08:00:08.042Z,100175.06
2022-10-22T08:02:44.093Z,100178.13
2022-10-22T08:05:13.646Z,100177.88
2022-10-22T08:07:42.495Z,100179.47
2022-10-22T08:10:12.770Z,100170.88
2022-10-22T08:12:42.882Z,100175.56
2022-10-22T08:15:12.081Z,100186.81
2022-10-22T08:17:41.037Z,100193.03
2022-10-22T08:20:12.391Z,100196.50
2022-10-22T08:22:41.229Z,100196.28
2022-10-22T08:25:10.968Z,100199.53
2022-10-22T08:27:40.165Z,100191.09
2022-10-22T08:30:10.576Z,100190.59
2022-10-22T08:32:39.382Z,100190.59
2022-10-22T08:35:12.002Z,100180.03
2022-10-22T08:37:43.275Z,100184.56
2022-10-22T08:40:22.791Z,100187.91
2022-10-22T08:43:45.095Z,100185.19
2022-10-22T08:46:34.992Z,100188.44
2022-10-22T08:51:44.790Z,100188.75
2022-10-22T08:54:27.497Z,100182.22
2022-10-22T09:00:11.853Z,100198.56
2022-10-22T09:02:57.517Z,100203.53
2022-10-22T09:05:44.041Z,100201.66
2022-10-22T09:08:16.151Z,100211.66
2022-10-22T09:10:50.623Z,100218.78
2022-10-22T09:13:23.959Z,100221.31
2022-10-22T09:15:58.797Z,100218.56
2022-10-22T09:18:39.649Z,100213.53
2022-10-22T09:21:23.625Z,100213.72
2022-10-22T09:24:05.566Z,100208.03
2022-10-22T09:26:40.368Z,100215.44
2022-10-22T09:29:18.722Z,100210.38
2022-10-22T09:31:47.654Z,100201.47
2022-10-22T09:34:20.720Z,100197.00
2022-10-22T09:36:59.149Z,100193.88
2022-10-22T09:39:33.788Z,100199.03
2022-10-22T09:42:03.253Z,100192.56
2022-10-22T09:44:35.576Z,100187.78
2022-10-22T09:47:06.959Z,100181.09
2022-10-22T09:49:37.382Z,100180.19
2022-10-22T09:52:28.751Z,100177.56
2022-10-22T09:55:03.735Z,100185.00
2022-10-22T09:57:37.918Z,100189.31
2022-10-22T10:00:13.617Z,100188.34
2022-10-22T10:02:44.312Z,100189.25
2022-10-22T10:05:22.011Z,100198.44
2022-10-22T10:07:50.736Z,100207.78
2022-10-22T10:10:33.668Z,100204.44
2022-10-22T10:13:18.729Z,100190.66
2022-10-22T10:15:57.332Z,100199.88
2022-10-22T10:18:46.887Z,100204.19
2022-10-22T10:21:27.803Z,100211.53
2022-10-22T10:24:09.967Z,100211.88
2022-10-22T10:26:54.532Z,100212.84
2022-10-22T10:29:42.699Z,100217.66
2022-10-22T10:32:56.155Z,100210.56
2022-10-22T10:35:29.356Z,100210.41
2022-10-22T10:38:31.435Z,100207.47
2022-10-22T10:41:17.169Z,100208.88
2022-10-22T10:44:11.003Z,100224.16
2022-10-22T10:46:56.369Z,100234.50
2022-10-22T10:49:28.231Z,100234.81
2022-10-22T10:52:17.498Z,100227.31
2022-10-22T10:55:14.729Z,100233.34
2022-10-22T10:58:01.738Z,100225.66
2022-10-22T11:00:41.003Z,100230.41
2022-10-22T11:04:00.831Z,100221.47
2022-10-22T11:06:34.127Z,100222.03
2022-10-22T11:09:10.317Z,100210.78
2022-10-22T11:11:48.303Z,100199.03
2022-10-22T11:14:25.323Z,100197.13
2022-10-22T11:17:06.258Z,100183.41
2022-10-22T11:19:51.568Z,100187.94
2022-10-22T11:22:30.543Z,100184.63
2022-10-22T11:25:06.889Z,100179.84
2022-10-22T11:27:43.905Z,100188.09
2022-10-22T11:30:16.773Z,100189.59
2022-10-22T11:32:55.460Z,100192.72
2022-10-22T11:35:29.240Z,100188.09
2022-10-22T11:37:59.602Z,100188.72
2022-10-22T11:40:37.360Z,100173.13
2022-10-22T11:43:08.960Z,100191.22
2022-10-22T11:45:41.303Z,100187.50
2022-10-22T11:48:20.326Z,100183.09
2022-10-22T11:50:53.092Z,100179.72
2022-10-22T11:53:32.860Z,100174.75
2022-10-22T11:56:24.299Z,100174.72
2022-10-22T11:58:56.052Z,100165.00
2022-10-22T12:01:40.652Z,100174.69
2022-10-22T12:04:24.675Z,100163.44
2022-10-22T12:07:00.556Z,100153.63
2022-10-22T12:09:34.426Z,100156.03
2022-10-22T12:12:13.653Z,100159.38
2022-10-22T12:14:55.665Z,100153.41
2022-10-22T12:17:26.692Z,100160.72
2022-10-22T12:20:04.170Z,100150.03
2022-10-22T12:22:37.245Z,100155.78
2022-10-22T12:25:20.117Z,100151.94
2022-10-22T12:27:54.949Z,100158.78
2022-10-22T12:30:28.004Z,100160.09
2022-10-22T12:33:00.333Z,100153.63
2022-10-22T12:35:33.368Z,100149.31
2022-10-22T12:38:06.864Z,100150.16
2022-10-22T12:40:37.271Z,100148.34
2022-10-22T12:43:15.002Z,100156.97
2022-10-22T12:45:48.501Z,100156.97
2022-10-22T12:48:22.934Z,100154.34
2022-10-22T12:50:55.769Z,100153.28
2022-10-22T12:53:31.010Z,100147.75
2022-10-22T12:56:05.957Z,100149.56
2022-10-22T12:58:41.359Z,100153.75
2022-10-22T13:01:13.700Z,100151.72
2022-10-22T13:03:47.009Z,100150.28
2022-10-22T13:06:26.014Z,100176.41
2022-10-22T13:09:08.622Z,100181.06
2022-10-22T13:11:42.312Z,100165.03
2022-10-22T13:14:23.528Z,100173.03
2022-10-22T13:17:12.913Z,100174.97
2022-10-22T13:19:50.196Z,100174.47
2022-10-22T13:22:34.061Z,100179.97
2022-10-22T13:25:22.772Z,100174.00
2022-10-22T13:27:55.615Z,100168.13
2022-10-22T13:30:28.255Z,100167.03
2022-10-22T13:32:59.884Z,100166.22
2022-10-22T13:35:33.526Z,100172.69
2022-10-22T13:38:04.520Z,100169.06
2022-10-22T13:40:33.270Z,100178.31
2022-10-22T13:43:01.804Z,100173.41
2022-10-22T13:45:30.875Z,100175.69
2022-10-22T13:47:59.547Z,100154.69
2022-10-22T13:50:28.280Z,100153.63
2022-10-22T13:52:59.254Z,100148.09
2022-10-22T13:55:31.650Z,100160.81
2022-10-22T13:58:11.093Z,100160.81
2022-10-22T14:00:44.885Z,100152.19
2022-10-22T14:03:19.321Z,100145.69
2022-10-22T14:05:49.653Z,100157.56
2022-10-22T14:08:21.764Z,100151.59
2022-10-22T14:10:51.866Z,100143.56
2022-10-22T14:13:22.313Z,100146.44
2022-10-22T14:15:53.636Z,100143.69
2022-10-22T14:18:27.485Z,100144.63
2022-10-22T14:21:00.665Z,100135.91
2022-10-22T14:23:32.122Z,100138.72
2022-10-22T14:26:03.567Z,100140.94
2022-10-22T14:28:40.970Z,100139.13
2022-10-22T14:31:15.248Z,100140.06
2022-10-22T14:33:43.898Z,100138.28
2022-10-22T14:36:15.784Z,100137.91
2022-10-22T14:38:46.026Z,100145.69
2022-10-22T14:41:22.656Z,100146.69
2022-10-22T14:43:52.662Z,100148.00
2022-10-22T14:46:21.581Z,100148.94
2022-10-22T14:48:50.144Z,100142.97
2022-10-22T14:51:21.989Z,100153.84
2022-10-22T14:53:50.854Z,100139.13
2022-10-22T14:56:22.283Z,100142.81
2022-10-22T14:58:51.784Z,100143.53
2022-10-22T15:01:20.665Z,100144.63
2022-10-22T15:03:49.300Z,100147.13
2022-10-22T15:06:18.117Z,100143.16
2022-10-22T15:08:46.837Z,100142.34
2022-10-22T15:11:15.720Z,100145.19
2022-10-22T15:13:45.635Z,100160.06
2022-10-22T15:16:16.852Z,100157.66
2022-10-22T15:18:45.590Z,100161.72
2022-10-22T15:21:18.787Z,100152.38
2022-10-22T15:23:47.802Z,100164.25
2022-10-22T15:26:17.776Z,100162.69
2022-10-22T15:28:47.745Z,100166.75
2022-10-22T15:31:16.870Z,100168.78
2022-10-22T15:33:45.443Z,100170.81
2022-10-22T15:36:17.984Z,100167.09
2022-10-22T15:38:46.598Z,100166.00
2022-10-22T15:41:15.523Z,100161.72
2022-10-22T15:43:44.072Z,100163.47
2022-10-22T15:46:18.096Z,100159.06
2022-10-22T15:48:47.500Z,100164.25
2022-10-22T15:51:19.730Z,100177.25
2022-10-22T15:53:53.772Z,100164.22
2022-10-22T15:56:23.759Z,100171.38
2022-10-22T15:58:57.619Z,100176.78
2022-10-22T16:01:28.794Z,100175.09
2022-10-22T16:04:02.530Z,100182.78
2022-10-22T16:06:35.716Z,100179.91
2022-10-22T16:09:10.004Z,100180.16
2022-10-22T16:11:40.208Z,100186.38
2022-10-22T16:14:11.372Z,100184.34
2022-10-22T16:16:45.190Z,100185.41
2022-10-22T16:19:16.503Z,100188.28
2022-10-22T16:21:46.008Z,100183.00
2022-10-22T16:24:14.618Z,100168.75
2022-10-22T16:26:43.410Z,100185.66
2022-10-22T16:29:12.699Z,100194.66
2022-10-22T16:31:44.102Z,100198.34
2022-10-22T16:34:13.353Z,100195.69
2022-10-22T16:36:42.123Z,100201.22
2022-10-22T16:39:10.883Z,100205.63
2022-10-22T16:41:39.625Z,100205.75
2022-10-22T16:44:09.392Z,100205.41
2022-10-22T16:46:38.954Z,100207.53
2022-10-22T16:49:09.499Z,100205.88
2022-10-22T16:51:38.326Z,100216.28
2022-10-22T16:54:09.913Z,100211.00
2022-10-22T16:56:41.308Z,100209.34
2022-10-22T16:59:10.223Z,100205.03
2022-10-22T17:01:41.281Z,100216.16
2022-10-22T17:04:11.771Z,100212.97
2022-10-22T17:06:40.605Z,100213.41
2022-10-22T17:09:09.352Z,100212.59
2022-10-22T17:11:40.230Z,100212.00
2022-10-22T17:14:11.458Z,100216.28
2022-10-22T17:16:40.212Z,100212.00
2022-10-22T17:19:08.804Z,100212.69
2022-10-22T17:21:38.912Z,100218.09
2022-10-22T17:24:07.805Z,100208.75
2022-10-22T17:26:37.447Z,100217.25
2022-10-22T17:29:06.441Z,100219.06
2022-10-22T17:31:37.545Z,100214.63
2022-10-22T17:34:09.189Z,100207.88
2022-10-22T17:36:39.715Z,100215.56
2022-10-22T17:39:09.249Z,100214.00
2022-10-22T17:41:39.091Z,100214.94
2022-10-22T17:44:10.349Z,100212.22
2022-10-22T17:46:39.556Z,100220.00
2022-10-22T17:49:17.810Z,100213.78
2022-10-22T17:51:49.075Z,100213.91
2022-10-22T17:54:17.778Z,100211.00
2022-10-22T17:56:46.617Z,100217.97
2022-10-22T17:59:17.893Z,100222.19
2022-10-22T18:01:47.793Z,100213.78
2022-10-22T18:04:19.722Z,100218.69
2022-10-22T18:06:50.698Z,100224.22
2022-10-22T18:09:20.434Z,100228.31
2022-10-22T18:11:50.958Z,100216.56
2022-10-22T18:14:22.099Z,100217.31
2022-10-22T18:16:51.948Z,100208.44
2022-10-22T18:19:23.320Z,100227.97
2022-10-22T18:21:53.456Z,100216.16
2022-10-22T18:24:22.032Z,100222.13
2022-10-22T18:26:50.836Z,100220.97
2022-10-22T18:29:20.804Z,100218.38
2022-10-22T18:31:50.153Z,100218.00
2022-10-22T18:34:21.573Z,100219.06
2022-10-22T18:36:53.944Z,100217.41
2022-10-22T18:39:22.600Z,100220.28
2022-10-22T18:41:51.517Z,100222.88
2022-10-22T18:44:20.204Z,100218.69
2022-10-22T18:46:49.034Z,100214.66
2022-10-22T18:49:20.300Z,100219.06
2022-10-22T18:51:53.031Z,100221.47
2022-10-22T18:54:24.551Z,100226.75
2022-10-22T18:57:00.616Z,100221.22
2022-10-22T18:59:31.768Z,100219.38
2022-10-22T19:02:00.595Z,100225.41
2022-10-22T19:04:33.687Z,100232.91
2022-10-22T19:07:02.454Z,100236.53
2022-10-22T19:09:32.564Z,100234.25
2022-10-22T19:12:02.108Z,100243.06
2022-10-22T19:14:30.721Z,100233.94
2022-10-22T19:16:59.499Z,100236.72
2022-10-22T19:19:28.641Z,100233.50
2022-10-22T19:21:59.527Z,100235.28
2022-10-22T19:24:28.177Z,100235.66
2022-10-22T19:26:58.346Z,100234.06
2022-10-22T19:29:26.842Z,100237.53
2022-10-22T19:31:55.728Z,100236.19
2022-10-22T19:34:24.525Z,100241.03
2022-10-22T19:36:53.326Z,100248.34
2022-10-22T19:39:22.196Z,100252.28
2022-10-22T19:41:50.935Z,100248.94
2022-10-22T19:44:20.844Z,100257.47
2022-10-22T19:46:49.888Z,100259.03
2022-10-22T19:49:21.971Z,100265.44
2022-10-22T19:51:52.056Z,100268.72
2022-10-22T19:54:20.852Z,100265.13
2022-10-22T19:56:50.840Z,100270.66
2022-10-22T19:59:22.751Z,100272.09
2022-10-22T20:01:51.732Z,100282.06
2022-10-22T20:04:25.048Z,100285.06
2022-10-22T20:06:54.024Z,100283.78
2022-10-22T20:09:22.709Z,100284.78
2022-10-22T20:11:51.534Z,100295.63
2022-10-22T20:14:21.443Z,100295.22
2022-10-22T20:16:50.262Z,100300.56
2022-10-22T20:19:19.177Z,100304.06
2022-10-22T20:21:49.163Z,100312.28
2022-10-22T20:24:17.924Z,100302.31
2022-10-22T20:26:47.646Z,100299.72
2022-10-22T20:29:19.139Z,100309.59
2022-10-22T20:31:49.700Z,100307.59
2022-10-22T20:34:18.464Z,100311.19
2022-10-22T20:36:48.106Z,100312.72
2022-10-22T20:39:17.598Z,100312.19
2022-10-22T20:41:46.437Z,100311.53
2022-10-22T20:44:17.878Z,100314.16
2022-10-22T20:46:48.335Z,100318.53
2022-10-22T20:49:20.712Z,100312.72
2022-10-22T20:51:49.598Z,100319.22
2022-10-22T20:54:19.234Z,100323.94
2022-10-22T20:56:48.985Z,100319.59
2022-10-22T20:59:18.092Z,100322.78
2022-10-22T21:01:52.055Z,100320.25
2022-10-22T21:04:22.702Z,100325.53
2022-10-22T21:06:52.283Z,100314.75
2022-10-22T21:09:22.922Z,100321.72
2022-10-22T21:14:23.642Z,100325.75
2022-10-22T21:16:53.967Z,100326.00
2022-10-22T21:19:23.780Z,100317.22
2022-10-22T21:21:52.830Z,100329.88
2022-10-22T21:24:24.735Z,100331.38
2022-10-22T21:26:54.245Z,100329.75
2022-10-22T21:29:23.007Z,100330.34
2022-10-22T21:31:53.866Z,100328.22
2022-10-22T21:34:22.376Z,100328.75
2022-10-22T21:36:51.130Z,100331.47
2022-10-22T21:39:19.741Z,100329.22
2022-10-22T21:41:48.455Z,100336.47
2022-10-22T21:44:17.388Z,100330.13
2022-10-22T21:46:46.127Z,100334.59
2022-10-22T21:49:16.056Z,100335.97
2022-10-22T21:51:44.882Z,100340.56
2022-10-22T21:54:13.721Z,100335.84
2022-10-22T21:56:42.977Z,100341.66
2022-10-22T21:59:11.537Z,100346.16
2022-10-22T22:01:40.540Z,100340.69
2022-10-22T22:04:09.100Z,100341.63
2022-10-22T22:06:39.594Z,100347.25
2022-10-22T22:09:08.428Z,100344.56
2022-10-22T22:11:37.254Z,100351.56
2022-10-22T22:14:05.847Z,100351.97
2022-10-22T22:16:36.020Z,100355.03
2022-10-22T22:19:08.284Z,100352.16
2022-10-22T22:21:41.279Z,100354.84
2022-10-22T22:24:12.578Z,100356.00
2022-10-22T22:26:41.912Z,100369.31
2022-10-22T22:29:11.894Z,100364.47
2022-10-22T22:31:40.770Z,100360.41
2022-10-22T22:34:14.384Z,100372.03
2022-10-22T22:36:47.006Z,100373.06
2022-10-22T22:39:19.007Z,100368.00
2022-10-22T22:41:48.364Z,100374.03
2022-10-22T22:44:16.984Z,100379.41
2022-10-22T22:46:46.089Z,100385.38
2022-10-22T22:49:15.349Z,100382.50
2022-10-22T22:51:45.668Z,100380.72
2022-10-22T22:54:14.212Z,100391.72
2022-10-22T22:56:43.059Z,100394.41
2022-10-22T22:59:12.415Z,100393.66
2022-10-22T23:01:41.473Z,100396.41
2022-10-22T23:04:16.415Z,100398.00
2022-10-22T23:06:47.322Z,100403.34
2022-10-22T23:09:17.716Z,100404.19
2022-10-22T23:11:48.426Z,100397.69
2022-10-22T23:14:19.310Z,100403.72
2022-10-22T23:16:51.546Z,100405.19
2022-10-22T23:19:23.177Z,100404.34
2022-10-22T23:21:55.692Z,100410.59
2022-10-22T23:24:28.224Z,100401.69
2022-10-22T23:27:01.591Z,100402.69
2022-10-22T23:29:34.252Z,100409.13
2022-10-22T23:32:04.943Z,100407.31
2022-10-22T23:34:34.112Z,100418.06
2022-10-22T23:37:04.226Z,100418.06
2022-10-22T23:39:32.975Z,100413.19
2022-10-22T23:42:01.692Z,100414.06
2022-10-22T23:44:30.253Z,100416.47
2022-10-22T23:46:58.963Z,100421.88
2022-10-22T23:49:27.478Z,100421.28
2022-10-22T23:51:56.260Z,100425.03
2022-10-22T23:54:26.135Z,100430.22
2022-10-22T23:56:54.902Z,100420.69
2022-10-22T23:59:23.538Z,100428.69
